sensor_id;sensor_type;location;lat;lon;timestamp;P1;durP1;ratioP1;P2;durP2;ratioP2
3523;SDS011;1776;53.330;11.498;2023-03-14T00:01:43;1.97;;;1.87;;
3523;SDS011;1776;53.330;11.498;2023-03-14T00:04:09;2.20;;;1.67;;
3523;SDS011;1776;53.330;11.498;2023-03-14T00:06:35;1.83;;;1.70;;
3523;SDS011;1776;53.330;11.498;2023-03-14T00:09:00;1.43;;;1.33;;
3523;SDS011;1776;53.330;11.498;2023-03-14T00:11:25;2.83;;;1.87;;
3523;SDS011;1776;53.330;11.498;2023-03-14T00:13:51;3.87;;;2.30;;
3523;SDS011;1776;53.330;11.498;2023-03-14T00:16:17;3.30;;;2.03;;
3523;SDS011;1776;53.330;11.498;2023-03-14T00:18:44;5.83;;;2.13;;
3523;SDS011;1776;53.330;11.498;2023-03-14T00:21:09;3.03;;;2.00;;
3523;SDS011;1776;53.330;11.498;2023-03-14T00:23:36;2.70;;;1.83;;
3523;SDS011;1776;53.330;11.498;2023-03-14T00:26:04;3.63;;;1.83;;
3523;SDS011;1776;53.330;11.498;2023-03-14T00:28:31;2.90;;;2.03;;
3523;SDS011;1776;53.330;11.498;2023-03-14T00:30:56;4.13;;;2.40;;
3523;SDS011;1776;53.330;11.498;2023-03-14T00:33:22;2.13;;;1.90;;
3523;SDS011;1776;53.330;11.498;2023-03-14T00:35:54;4.50;;;2.43;;
3523;SDS011;1776;53.330;11.498;2023-03-14T00:38:21;6.03;;;3.93;;
3523;SDS011;1776;53.330;11.498;2023-03-14T00:40:47;3.80;;;2.03;;
3523;SDS011;1776;53.330;11.498;2023-03-14T00:43:12;2.97;;;1.73;;
3523;SDS011;1776;53.330;11.498;2023-03-14T00:45:38;9.10;;;3.57;;
3523;SDS011;1776;53.330;11.498;2023-03-14T00:48:03;7.63;;;4.17;;
3523;SDS011;1776;53.330;11.498;2023-03-14T00:50:28;4.43;;;2.10;;
3523;SDS011;1776;53.330;11.498;2023-03-14T00:52:53;2.80;;;2.23;;
3523;SDS011;1776;53.330;11.498;2023-03-14T00:55:19;2.40;;;2.20;;
3523;SDS011;1776;53.330;11.498;2023-03-14T00:57:44;6.27;;;2.30;;
3523;SDS011;1776;53.330;11.498;2023-03-14T01:00:09;3.57;;;2.00;;
3523;SDS011;1776;53.330;11.498;2023-03-14T01:02:37;3.30;;;2.00;;
3523;SDS011;1776;53.330;11.498;2023-03-14T01:05:02;2.13;;;1.80;;
3523;SDS011;1776;53.330;11.498;2023-03-14T01:07:28;3.13;;;1.73;;
3523;SDS011;1776;53.330;11.498;2023-03-14T01:09:54;3.27;;;2.10;;
3523;SDS011;1776;53.330;11.498;2023-03-14T01:12:19;2.97;;;2.13;;
3523;SDS011;1776;53.330;11.498;2023-03-14T01:14:44;3.00;;;1.80;;
3523;SDS011;1776;53.330;11.498;2023-03-14T01:17:09;1.90;;;1.70;;
3523;SDS011;1776;53.330;11.498;2023-03-14T01:19:35;3.50;;;2.23;;
3523;SDS011;1776;53.330;11.498;2023-03-14T01:22:00;3.03;;;2.20;;
3523;SDS011;1776;53.330;11.498;2023-03-14T01:24:25;2.63;;;1.90;;
3523;SDS011;1776;53.330;11.498;2023-03-14T01:26:51;2.70;;;1.80;;
3523;SDS011;1776;53.330;11.498;2023-03-14T01:29:16;3.27;;;1.90;;
3523;SDS011;1776;53.330;11.498;2023-03-14T01:31:41;2.47;;;2.00;;
3523;SDS011;1776;53.330;11.498;2023-03-14T01:34:06;3.83;;;1.90;;
3523;SDS011;1776;53.330;11.498;2023-03-14T01:36:32;4.27;;;2.17;;
3523;SDS011;1776;53.330;11.498;2023-03-14T01:38:57;3.70;;;2.20;;
3523;SDS011;1776;53.330;11.498;2023-03-14T01:41:23;2.57;;;2.30;;
3523;SDS011;1776;53.330;11.498;2023-03-14T01:43:50;2.30;;;1.93;;
3523;SDS011;1776;53.330;11.498;2023-03-14T01:48:55;3.20;;;1.87;;
3523;SDS011;1776;53.330;11.498;2023-03-14T01:51:56;1.93;;;1.63;;
3523;SDS011;1776;53.330;11.498;2023-03-14T01:54:31;5.40;;;2.80;;
3523;SDS011;1776;53.330;11.498;2023-03-14T01:57:03;3.07;;;1.70;;
3523;SDS011;1776;53.330;11.498;2023-03-14T01:59:33;2.17;;;1.87;;
3523;SDS011;1776;53.330;11.498;2023-03-14T02:01:59;2.77;;;2.37;;
3523;SDS011;1776;53.330;11.498;2023-03-14T02:04:27;2.77;;;1.77;;
3523;SDS011;1776;53.330;11.498;2023-03-14T02:06:57;2.80;;;1.53;;
3523;SDS011;1776;53.330;11.498;2023-03-14T02:09:28;2.53;;;1.80;;
3523;SDS011;1776;53.330;11.498;2023-03-14T02:11:55;2.70;;;1.70;;
3523;SDS011;1776;53.330;11.498;2023-03-14T02:14:24;2.13;;;1.60;;
3523;SDS011;1776;53.330;11.498;2023-03-14T02:16:53;5.00;;;2.00;;
3523;SDS011;1776;53.330;11.498;2023-03-14T02:19:21;4.77;;;1.83;;
3523;SDS011;1776;53.330;11.498;2023-03-14T02:22:06;2.30;;;1.83;;
3523;SDS011;1776;53.330;11.498;2023-03-14T02:24:38;3.80;;;1.93;;
3523;SDS011;1776;53.330;11.498;2023-03-14T02:29:37;3.67;;;1.80;;
3523;SDS011;1776;53.330;11.498;2023-03-14T02:32:07;4.47;;;2.33;;
3523;SDS011;1776;53.330;11.498;2023-03-14T02:34:33;2.50;;;1.57;;
3523;SDS011;1776;53.330;11.498;2023-03-14T02:36:59;2.70;;;1.97;;
3523;SDS011;1776;53.330;11.498;2023-03-14T02:39:35;3.67;;;1.70;;
3523;SDS011;1776;53.330;11.498;2023-03-14T02:42:03;3.30;;;1.70;;
3523;SDS011;1776;53.330;11.498;2023-03-14T02:44:28;2.77;;;1.50;;
3523;SDS011;1776;53.330;11.498;2023-03-14T02:46:54;4.10;;;2.07;;
3523;SDS011;1776;53.330;11.498;2023-03-14T02:49:19;2.90;;;2.40;;
3523;SDS011;1776;53.330;11.498;2023-03-14T02:51:44;2.20;;;1.60;;
3523;SDS011;1776;53.330;11.498;2023-03-14T02:54:11;3.33;;;1.77;;
3523;SDS011;1776;53.330;11.498;2023-03-14T02:56:36;5.97;;;2.37;;
3523;SDS011;1776;53.330;11.498;2023-03-14T02:59:05;7.20;;;1.83;;
3523;SDS011;1776;53.330;11.498;2023-03-14T03:01:30;5.17;;;1.80;;
3523;SDS011;1776;53.330;11.498;2023-03-14T03:03:56;3.17;;;1.87;;
3523;SDS011;1776;53.330;11.498;2023-03-14T03:06:21;3.00;;;1.70;;
3523;SDS011;1776;53.330;11.498;2023-03-14T03:08:47;3.10;;;1.73;;
3523;SDS011;1776;53.330;11.498;2023-03-14T03:11:12;2.53;;;2.20;;
3523;SDS011;1776;53.330;11.498;2023-03-14T03:13:37;5.27;;;2.57;;
3523;SDS011;1776;53.330;11.498;2023-03-14T03:16:03;6.03;;;1.83;;
3523;SDS011;1776;53.330;11.498;2023-03-14T03:18:28;4.43;;;1.70;;
3523;SDS011;1776;53.330;11.498;2023-03-14T03:20:54;2.87;;;1.87;;
3523;SDS011;1776;53.330;11.498;2023-03-14T03:23:19;2.90;;;2.10;;
3523;SDS011;1776;53.330;11.498;2023-03-14T03:25:48;1.73;;;1.57;;
3523;SDS011;1776;53.330;11.498;2023-03-14T03:28:14;3.23;;;1.93;;
3523;SDS011;1776;53.330;11.498;2023-03-14T03:30:40;4.60;;;1.60;;
3523;SDS011;1776;53.330;11.498;2023-03-14T03:33:06;5.07;;;2.50;;
3523;SDS011;1776;53.330;11.498;2023-03-14T03:35:32;4.23;;;2.43;;
3523;SDS011;1776;53.330;11.498;2023-03-14T03:37:57;1.87;;;1.30;;
3523;SDS011;1776;53.330;11.498;2023-03-14T03:40:23;3.77;;;1.93;;
3523;SDS011;1776;53.330;11.498;2023-03-14T03:42:48;3.70;;;1.73;;
3523;SDS011;1776;53.330;11.498;2023-03-14T03:45:14;2.80;;;1.83;;
3523;SDS011;1776;53.330;11.498;2023-03-14T03:47:39;2.77;;;1.97;;
3523;SDS011;1776;53.330;11.498;2023-03-14T03:50:04;2.63;;;2.43;;
3523;SDS011;1776;53.330;11.498;2023-03-14T03:52:30;6.87;;;2.60;;
3523;SDS011;1776;53.330;11.498;2023-03-14T03:54:55;3.00;;;2.37;;
3523;SDS011;1776;53.330;11.498;2023-03-14T03:57:21;4.10;;;2.10;;
3523;SDS011;1776;53.330;11.498;2023-03-14T03:59:46;1.70;;;1.60;;
3523;SDS011;1776;53.330;11.498;2023-03-14T04:02:11;4.70;;;2.60;;
3523;SDS011;1776;53.330;11.498;2023-03-14T04:04:36;3.83;;;1.97;;
3523;SDS011;1776;53.330;11.498;2023-03-14T04:07:03;4.13;;;2.10;;
3523;SDS011;1776;53.330;11.498;2023-03-14T04:09:28;6.00;;;2.40;;
3523;SDS011;1776;53.330;11.498;2023-03-14T04:11:54;5.50;;;1.80;;
3523;SDS011;1776;53.330;11.498;2023-03-14T04:14:19;4.70;;;2.17;;
3523;SDS011;1776;53.330;11.498;2023-03-14T04:16:44;3.13;;;2.13;;
3523;SDS011;1776;53.330;11.498;2023-03-14T04:19:10;5.37;;;2.80;;
3523;SDS011;1776;53.330;11.498;2023-03-14T04:21:35;3.37;;;1.70;;
3523;SDS011;1776;53.330;11.498;2023-03-14T04:24:00;2.03;;;1.83;;
3523;SDS011;1776;53.330;11.498;2023-03-14T04:26:26;8.23;;;2.17;;
3523;SDS011;1776;53.330;11.498;2023-03-14T04:28:51;1.77;;;1.67;;
3523;SDS011;1776;53.330;11.498;2023-03-14T04:31:17;3.27;;;2.17;;
3523;SDS011;1776;53.330;11.498;2023-03-14T04:33:44;1.77;;;1.47;;
3523;SDS011;1776;53.330;11.498;2023-03-14T04:36:10;5.43;;;1.80;;
3523;SDS011;1776;53.330;11.498;2023-03-14T04:38:35;4.43;;;2.10;;
3523;SDS011;1776;53.330;11.498;2023-03-14T04:41:01;5.73;;;1.97;;
3523;SDS011;1776;53.330;11.498;2023-03-14T04:43:27;8.83;;;2.47;;
3523;SDS011;1776;53.330;11.498;2023-03-14T04:45:53;5.10;;;1.80;;
3523;SDS011;1776;53.330;11.498;2023-03-14T04:48:19;4.10;;;2.30;;
3523;SDS011;1776;53.330;11.498;2023-03-14T04:50:45;2.20;;;1.60;;
3523;SDS011;1776;53.330;11.498;2023-03-14T04:53:11;3.37;;;2.03;;
3523;SDS011;1776;53.330;11.498;2023-03-14T04:55:37;6.43;;;2.50;;
3523;SDS011;1776;53.330;11.498;2023-03-14T04:58:02;5.53;;;2.63;;
3523;SDS011;1776;53.330;11.498;2023-03-14T05:00:28;4.50;;;3.07;;
3523;SDS011;1776;53.330;11.498;2023-03-14T05:02:53;6.40;;;4.07;;
3523;SDS011;1776;53.330;11.498;2023-03-14T05:05:19;6.57;;;3.37;;
3523;SDS011;1776;53.330;11.498;2023-03-14T05:07:44;2.43;;;2.23;;
3523;SDS011;1776;53.330;11.498;2023-03-14T05:10:09;3.13;;;1.87;;
3523;SDS011;1776;53.330;11.498;2023-03-14T05:12:35;4.10;;;1.80;;
3523;SDS011;1776;53.330;11.498;2023-03-14T05:15:00;5.90;;;2.00;;
3523;SDS011;1776;53.330;11.498;2023-03-14T05:17:26;4.63;;;2.00;;
3523;SDS011;1776;53.330;11.498;2023-03-14T05:19:51;2.80;;;2.00;;
3523;SDS011;1776;53.330;11.498;2023-03-14T05:22:16;2.73;;;1.47;;
3523;SDS011;1776;53.330;11.498;2023-03-14T05:24:41;2.60;;;1.73;;
3523;SDS011;1776;53.330;11.498;2023-03-14T05:27:07;3.30;;;1.57;;
3523;SDS011;1776;53.330;11.498;2023-03-14T05:29:32;2.30;;;1.70;;
3523;SDS011;1776;53.330;11.498;2023-03-14T05:31:57;6.57;;;2.20;;
3523;SDS011;1776;53.330;11.498;2023-03-14T05:34:22;4.00;;;1.80;;
3523;SDS011;1776;53.330;11.498;2023-03-14T05:36:48;1.90;;;1.63;;
3523;SDS011;1776;53.330;11.498;2023-03-14T05:39:13;1.60;;;1.20;;
3523;SDS011;1776;53.330;11.498;2023-03-14T05:41:38;2.40;;;2.00;;
3523;SDS011;1776;53.330;11.498;2023-03-14T05:44:04;3.07;;;1.57;;
3523;SDS011;1776;53.330;11.498;2023-03-14T05:46:29;3.47;;;2.63;;
3523;SDS011;1776;53.330;11.498;2023-03-14T05:48:55;2.73;;;1.33;;
3523;SDS011;1776;53.330;11.498;2023-03-14T05:51:24;5.57;;;1.77;;
3523;SDS011;1776;53.330;11.498;2023-03-14T05:53:49;2.80;;;1.57;;
3523;SDS011;1776;53.330;11.498;2023-03-14T05:56:15;5.00;;;2.33;;
3523;SDS011;1776;53.330;11.498;2023-03-14T05:58:40;1.50;;;1.17;;
3523;SDS011;1776;53.330;11.498;2023-03-14T06:01:05;3.03;;;1.27;;
3523;SDS011;1776;53.330;11.498;2023-03-14T06:03:32;2.40;;;1.60;;
3523;SDS011;1776;53.330;11.498;2023-03-14T06:05:57;2.43;;;1.40;;
3523;SDS011;1776;53.330;11.498;2023-03-14T06:08:23;3.43;;;1.23;;
3523;SDS011;1776;53.330;11.498;2023-03-14T06:10:48;5.73;;;2.03;;
3523;SDS011;1776;53.330;11.498;2023-03-14T06:13:13;2.60;;;1.37;;
3523;SDS011;1776;53.330;11.498;2023-03-14T06:15:40;3.90;;;1.37;;
3523;SDS011;1776;53.330;11.498;2023-03-14T06:18:05;3.70;;;1.10;;
3523;SDS011;1776;53.330;11.498;2023-03-14T06:20:31;2.53;;;1.40;;
3523;SDS011;1776;53.330;11.498;2023-03-14T06:22:57;2.47;;;1.20;;
3523;SDS011;1776;53.330;11.498;2023-03-14T06:25:23;10.13;;;1.70;;
3523;SDS011;1776;53.330;11.498;2023-03-14T06:27:48;2.13;;;1.00;;
3523;SDS011;1776;53.330;11.498;2023-03-14T06:30:13;1.20;;;0.90;;
3523;SDS011;1776;53.330;11.498;2023-03-14T06:32:39;3.13;;;1.30;;
3523;SDS011;1776;53.330;11.498;2023-03-14T06:35:04;2.93;;;1.30;;
3523;SDS011;1776;53.330;11.498;2023-03-14T06:37:30;1.33;;;1.00;;
3523;SDS011;1776;53.330;11.498;2023-03-14T06:39:55;2.13;;;1.17;;
3523;SDS011;1776;53.330;11.498;2023-03-14T06:42:21;1.33;;;1.23;;
3523;SDS011;1776;53.330;11.498;2023-03-14T06:44:47;3.17;;;1.70;;
3523;SDS011;1776;53.330;11.498;2023-03-14T06:47:12;4.53;;;1.50;;
3523;SDS011;1776;53.330;11.498;2023-03-14T06:49:38;3.43;;;1.10;;
3523;SDS011;1776;53.330;11.498;2023-03-14T06:52:03;3.47;;;1.10;;
3523;SDS011;1776;53.330;11.498;2023-03-14T06:54:28;4.40;;;1.57;;
3523;SDS011;1776;53.330;11.498;2023-03-14T06:56:54;1.90;;;1.03;;
3523;SDS011;1776;53.330;11.498;2023-03-14T06:59:19;4.97;;;1.30;;
3523;SDS011;1776;53.330;11.498;2023-03-14T07:01:44;5.60;;;1.00;;
3523;SDS011;1776;53.330;11.498;2023-03-14T07:04:09;3.27;;;1.10;;
3523;SDS011;1776;53.330;11.498;2023-03-14T07:06:35;1.63;;;1.00;;
3523;SDS011;1776;53.330;11.498;2023-03-14T07:09:00;2.77;;;1.00;;
3523;SDS011;1776;53.330;11.498;2023-03-14T07:11:26;4.60;;;1.30;;
3523;SDS011;1776;53.330;11.498;2023-03-14T07:13:51;2.03;;;1.10;;
3523;SDS011;1776;53.330;11.498;2023-03-14T07:16:17;5.50;;;1.10;;
3523;SDS011;1776;53.330;11.498;2023-03-14T07:18:43;2.37;;;1.33;;
3523;SDS011;1776;53.330;11.498;2023-03-14T07:21:08;5.00;;;1.20;;
3523;SDS011;1776;53.330;11.498;2023-03-14T07:23:37;3.67;;;1.00;;
3523;SDS011;1776;53.330;11.498;2023-03-14T07:26:02;1.40;;;1.30;;
3523;SDS011;1776;53.330;11.498;2023-03-14T07:28:28;4.80;;;1.50;;
3523;SDS011;1776;53.330;11.498;2023-03-14T07:30:54;3.83;;;1.33;;
3523;SDS011;1776;53.330;11.498;2023-03-14T07:33:19;4.00;;;1.50;;
3523;SDS011;1776;53.330;11.498;2023-03-14T07:35:46;9.07;;;1.27;;
3523;SDS011;1776;53.330;11.498;2023-03-14T07:38:13;3.27;;;1.17;;
3523;SDS011;1776;53.330;11.498;2023-03-14T07:40:39;1.67;;;0.90;;
3523;SDS011;1776;53.330;11.498;2023-03-14T07:43:04;5.77;;;1.27;;
3523;SDS011;1776;53.330;11.498;2023-03-14T07:45:29;4.20;;;1.47;;
3523;SDS011;1776;53.330;11.498;2023-03-14T07:47:54;2.53;;;1.00;;
3523;SDS011;1776;53.330;11.498;2023-03-14T07:50:22;6.60;;;1.50;;
3523;SDS011;1776;53.330;11.498;2023-03-14T07:52:50;6.80;;;1.47;;
3523;SDS011;1776;53.330;11.498;2023-03-14T07:55:16;4.80;;;1.47;;
3523;SDS011;1776;53.330;11.498;2023-03-14T07:57:41;7.90;;;1.33;;
3523;SDS011;1776;53.330;11.498;2023-03-14T08:00:07;4.57;;;1.43;;
3523;SDS011;1776;53.330;11.498;2023-03-14T08:02:33;4.00;;;1.23;;
3523;SDS011;1776;53.330;11.498;2023-03-14T08:04:58;9.00;;;1.43;;
3523;SDS011;1776;53.330;11.498;2023-03-14T08:07:23;6.63;;;1.90;;
3523;SDS011;1776;53.330;11.498;2023-03-14T08:09:49;5.57;;;1.40;;
3523;SDS011;1776;53.330;11.498;2023-03-14T08:12:14;2.90;;;1.30;;
3523;SDS011;1776;53.330;11.498;2023-03-14T08:14:40;5.30;;;1.47;;
3523;SDS011;1776;53.330;11.498;2023-03-14T08:17:06;3.07;;;1.30;;
3523;SDS011;1776;53.330;11.498;2023-03-14T08:19:33;3.50;;;1.53;;
3523;SDS011;1776;53.330;11.498;2023-03-14T08:21:58;3.37;;;1.27;;
3523;SDS011;1776;53.330;11.498;2023-03-14T08:24:24;2.67;;;1.60;;
3523;SDS011;1776;53.330;11.498;2023-03-14T08:26:49;2.27;;;1.60;;
3523;SDS011;1776;53.330;11.498;2023-03-14T08:29:14;4.30;;;1.50;;
3523;SDS011;1776;53.330;11.498;2023-03-14T08:31:39;3.30;;;2.30;;
3523;SDS011;1776;53.330;11.498;2023-03-14T08:34:05;3.77;;;1.57;;
3523;SDS011;1776;53.330;11.498;2023-03-14T08:36:31;4.47;;;1.70;;
3523;SDS011;1776;53.330;11.498;2023-03-14T08:38:57;4.97;;;1.87;;
3523;SDS011;1776;53.330;11.498;2023-03-14T08:41:22;6.50;;;2.07;;
3523;SDS011;1776;53.330;11.498;2023-03-14T08:43:47;4.03;;;2.10;;
3523;SDS011;1776;53.330;11.498;2023-03-14T08:46:13;7.50;;;2.43;;
3523;SDS011;1776;53.330;11.498;2023-03-14T08:48:38;6.03;;;2.50;;
3523;SDS011;1776;53.330;11.498;2023-03-14T08:51:04;4.80;;;2.27;;
3523;SDS011;1776;53.330;11.498;2023-03-14T08:53:33;7.07;;;2.60;;
3523;SDS011;1776;53.330;11.498;2023-03-14T08:55:58;6.37;;;1.93;;
3523;SDS011;1776;53.330;11.498;2023-03-14T08:58:24;6.77;;;2.57;;
3523;SDS011;1776;53.330;11.498;2023-03-14T09:00:49;5.73;;;2.70;;
3523;SDS011;1776;53.330;11.498;2023-03-14T09:03:14;9.07;;;2.93;;
3523;SDS011;1776;53.330;11.498;2023-03-14T09:05:40;4.70;;;2.60;;
3523;SDS011;1776;53.330;11.498;2023-03-14T09:08:05;5.27;;;2.10;;
3523;SDS011;1776;53.330;11.498;2023-03-14T09:10:30;5.40;;;2.50;;
3523;SDS011;1776;53.330;11.498;2023-03-14T09:12:56;5.23;;;2.80;;
3523;SDS011;1776;53.330;11.498;2023-03-14T09:15:23;5.93;;;2.70;;
3523;SDS011;1776;53.330;11.498;2023-03-14T09:17:49;9.60;;;2.50;;
3523;SDS011;1776;53.330;11.498;2023-03-14T09:20:14;6.87;;;2.43;;
3523;SDS011;1776;53.330;11.498;2023-03-14T09:22:40;6.00;;;2.10;;
3523;SDS011;1776;53.330;11.498;2023-03-14T09:25:06;6.17;;;2.33;;
3523;SDS011;1776;53.330;11.498;2023-03-14T09:27:31;7.00;;;2.30;;
3523;SDS011;1776;53.330;11.498;2023-03-14T09:29:56;5.60;;;2.13;;
3523;SDS011;1776;53.330;11.498;2023-03-14T09:32:22;8.57;;;2.30;;
3523;SDS011;1776;53.330;11.498;2023-03-14T09:34:47;9.10;;;2.57;;
3523;SDS011;1776;53.330;11.498;2023-03-14T09:37:12;4.73;;;2.10;;
3523;SDS011;1776;53.330;11.498;2023-03-14T09:39:38;4.73;;;1.83;;
3523;SDS011;1776;53.330;11.498;2023-03-14T09:42:04;4.40;;;2.10;;
3523;SDS011;1776;53.330;11.498;2023-03-14T09:44:34;5.17;;;1.83;;
3523;SDS011;1776;53.330;11.498;2023-03-14T09:47:06;5.70;;;2.03;;
3523;SDS011;1776;53.330;11.498;2023-03-14T09:49:41;6.80;;;1.77;;
3523;SDS011;1776;53.330;11.498;2023-03-14T09:52:12;4.90;;;1.60;;
3523;SDS011;1776;53.330;11.498;2023-03-14T09:54:43;8.93;;;1.43;;
3523;SDS011;1776;53.330;11.498;2023-03-14T09:57:13;13.40;;;2.10;;
3523;SDS011;1776;53.330;11.498;2023-03-14T09:59:41;5.43;;;1.60;;
3523;SDS011;1776;53.330;11.498;2023-03-14T10:02:20;4.13;;;1.43;;
3523;SDS011;1776;53.330;11.498;2023-03-14T10:04:47;3.73;;;1.80;;
3523;SDS011;1776;53.330;11.498;2023-03-14T10:07:15;4.57;;;1.50;;
3523;SDS011;1776;53.330;11.498;2023-03-14T10:09:44;6.43;;;2.00;;
3523;SDS011;1776;53.330;11.498;2023-03-14T10:12:12;2.83;;;1.33;;
3523;SDS011;1776;53.330;11.498;2023-03-14T10:14:38;2.70;;;1.20;;
3523;SDS011;1776;53.330;11.498;2023-03-14T10:17:14;4.60;;;1.43;;
3523;SDS011;1776;53.330;11.498;2023-03-14T10:19:51;3.40;;;1.00;;
3523;SDS011;1776;53.330;11.498;2023-03-14T10:22:21;5.03;;;1.60;;
3523;SDS011;1776;53.330;11.498;2023-03-14T10:24:56;2.93;;;1.00;;
3523;SDS011;1776;53.330;11.498;2023-03-14T10:27:29;4.73;;;1.00;;
3523;SDS011;1776;53.330;11.498;2023-03-14T10:29:58;3.50;;;1.40;;
3523;SDS011;1776;53.330;11.498;2023-03-14T10:32:34;4.30;;;1.17;;
3523;SDS011;1776;53.330;11.498;2023-03-14T10:35:26;5.43;;;1.17;;
3523;SDS011;1776;53.330;11.498;2023-03-14T10:37:58;2.33;;;0.97;;
3523;SDS011;1776;53.330;11.498;2023-03-14T10:40:28;3.70;;;1.30;;
3523;SDS011;1776;53.330;11.498;2023-03-14T10:42:58;2.00;;;0.80;;
3523;SDS011;1776;53.330;11.498;2023-03-14T10:47:59;2.90;;;1.07;;
3523;SDS011;1776;53.330;11.498;2023-03-14T10:50:47;3.07;;;0.90;;
3523;SDS011;1776;53.330;11.498;2023-03-14T10:53:26;1.20;;;0.80;;
3523;SDS011;1776;53.330;11.498;2023-03-14T10:55:57;3.43;;;1.03;;
3523;SDS011;1776;53.330;11.498;2023-03-14T10:58:27;1.20;;;0.60;;
3523;SDS011;1776;53.330;11.498;2023-03-14T11:01:16;2.00;;;0.80;;
3523;SDS011;1776;53.330;11.498;2023-03-14T11:03:45;1.70;;;0.80;;
3523;SDS011;1776;53.330;11.498;2023-03-14T11:15:16;1.13;;;0.67;;
3523;SDS011;1776;53.330;11.498;2023-03-14T11:17:56;2.10;;;0.73;;
3523;SDS011;1776;53.330;11.498;2023-03-14T11:20:38;2.10;;;0.93;;
3523;SDS011;1776;53.330;11.498;2023-03-14T11:23:29;0.67;;;0.43;;
3523;SDS011;1776;53.330;11.498;2023-03-14T11:26:01;0.90;;;0.50;;
3523;SDS011;1776;53.330;11.498;2023-03-14T11:28:45;3.13;;;0.60;;
3523;SDS011;1776;53.330;11.498;2023-03-14T11:33:46;1.50;;;0.50;;
3523;SDS011;1776;53.330;11.498;2023-03-14T11:36:15;0.83;;;0.50;;
3523;SDS011;1776;53.330;11.498;2023-03-14T11:38:48;0.83;;;0.60;;
3523;SDS011;1776;53.330;11.498;2023-03-14T11:41:20;0.93;;;0.80;;
3523;SDS011;1776;53.330;11.498;2023-03-14T11:43:53;1.23;;;1.00;;
3523;SDS011;1776;53.330;11.498;2023-03-14T11:46:32;5.60;;;0.60;;
3523;SDS011;1776;53.330;11.498;2023-03-14T11:49:14;0.80;;;0.70;;
3523;SDS011;1776;53.330;11.498;2023-03-14T11:51:58;2.20;;;0.70;;
3523;SDS011;1776;53.330;11.498;2023-03-14T11:54:35;2.13;;;0.90;;
3523;SDS011;1776;53.330;11.498;2023-03-14T12:05:40;0.60;;;0.60;;
3523;SDS011;1776;53.330;11.498;2023-03-14T12:13:38;7.33;;;2.70;;
3523;SDS011;1776;53.330;11.498;2023-03-14T12:16:05;1.27;;;0.80;;
3523;SDS011;1776;53.330;11.498;2023-03-14T12:18:43;0.90;;;0.70;;
3523;SDS011;1776;53.330;11.498;2023-03-14T12:21:11;0.70;;;0.50;;
3523;SDS011;1776;53.330;11.498;2023-03-14T12:23:40;0.83;;;0.60;;
3523;SDS011;1776;53.330;11.498;2023-03-14T12:28:36;0.80;;;0.53;;
3523;SDS011;1776;53.330;11.498;2023-03-14T12:34:02;1.80;;;0.80;;
3523;SDS011;1776;53.330;11.498;2023-03-14T12:36:48;1.23;;;0.87;;
3523;SDS011;1776;53.330;11.498;2023-03-14T12:49:48;1.27;;;0.63;;
3523;SDS011;1776;53.330;11.498;2023-03-14T12:52:59;1.00;;;0.90;;
3523;SDS011;1776;53.330;11.498;2023-03-14T12:55:19;4.00;;;1.17;;
3523;SDS011;1776;53.330;11.498;2023-03-14T12:58:02;3.73;;;1.60;;
3523;SDS011;1776;53.330;11.498;2023-03-14T13:00:33;3.97;;;1.27;;
3523;SDS011;1776;53.330;11.498;2023-03-14T13:03:02;4.10;;;1.87;;
3523;SDS011;1776;53.330;11.498;2023-03-14T13:05:53;2.50;;;1.17;;
3523;SDS011;1776;53.330;11.498;2023-03-14T13:11:04;3.60;;;1.63;;
3523;SDS011;1776;53.330;11.498;2023-03-14T13:13:33;7.30;;;1.63;;
3523;SDS011;1776;53.330;11.498;2023-03-14T13:16:01;5.17;;;1.23;;
3523;SDS011;1776;53.330;11.498;2023-03-14T13:18:39;1.47;;;0.90;;
3523;SDS011;1776;53.330;11.498;2023-03-14T13:21:20;5.43;;;1.00;;
3523;SDS011;1776;53.330;11.498;2023-03-14T13:24:34;3.23;;;1.20;;
3523;SDS011;1776;53.330;11.498;2023-03-14T13:26:47;3.57;;;1.20;;
3523;SDS011;1776;53.330;11.498;2023-03-14T13:29:22;19.77;;;8.10;;
3523;SDS011;1776;53.330;11.498;2023-03-14T13:31:53;20.00;;;13.27;;
3523;SDS011;1776;53.330;11.498;2023-03-14T13:34:24;4.57;;;1.60;;
3523;SDS011;1776;53.330;11.498;2023-03-14T13:36:54;4.97;;;3.03;;
3523;SDS011;1776;53.330;11.498;2023-03-14T13:39:20;14.37;;;9.60;;
3523;SDS011;1776;53.330;11.498;2023-03-14T13:41:50;12.53;;;7.60;;
3523;SDS011;1776;53.330;11.498;2023-03-14T13:44:27;10.83;;;4.30;;
3523;SDS011;1776;53.330;11.498;2023-03-14T13:46:57;10.53;;;6.67;;
3523;SDS011;1776;53.330;11.498;2023-03-14T13:49:24;16.83;;;6.50;;
3523;SDS011;1776;53.330;11.498;2023-03-14T13:51:50;8.50;;;5.30;;
3523;SDS011;1776;53.330;11.498;2023-03-14T13:54:17;8.20;;;4.27;;
3523;SDS011;1776;53.330;11.498;2023-03-14T13:56:44;13.00;;;4.50;;
3523;SDS011;1776;53.330;11.498;2023-03-14T13:59:22;12.77;;;5.87;;
3523;SDS011;1776;53.330;11.498;2023-03-14T14:01:48;6.17;;;2.80;;
3523;SDS011;1776;53.330;11.498;2023-03-14T14:04:15;8.00;;;3.73;;
3523;SDS011;1776;53.330;11.498;2023-03-14T14:06:44;5.30;;;1.70;;
3523;SDS011;1776;53.330;11.498;2023-03-14T14:09:15;3.80;;;1.50;;
3523;SDS011;1776;53.330;11.498;2023-03-14T14:11:58;8.17;;;2.77;;
3523;SDS011;1776;53.330;11.498;2023-03-14T14:14:31;9.83;;;2.27;;
3523;SDS011;1776;53.330;11.498;2023-03-14T14:17:01;8.37;;;1.90;;
3523;SDS011;1776;53.330;11.498;2023-03-14T14:19:30;3.97;;;1.67;;
3523;SDS011;1776;53.330;11.498;2023-03-14T14:21:57;5.90;;;1.53;;
3523;SDS011;1776;53.330;11.498;2023-03-14T14:24:23;4.37;;;1.73;;
3523;SDS011;1776;53.330;11.498;2023-03-14T14:26:53;8.33;;;2.17;;
3523;SDS011;1776;53.330;11.498;2023-03-14T14:29:25;6.50;;;3.73;;
3523;SDS011;1776;53.330;11.498;2023-03-14T14:32:02;6.43;;;2.60;;
3523;SDS011;1776;53.330;11.498;2023-03-14T14:34:46;10.03;;;1.93;;
3523;SDS011;1776;53.330;11.498;2023-03-14T14:40:22;3.67;;;1.73;;
3523;SDS011;1776;53.330;11.498;2023-03-14T14:42:49;5.67;;;1.70;;
3523;SDS011;1776;53.330;11.498;2023-03-14T14:45:24;5.07;;;2.43;;
3523;SDS011;1776;53.330;11.498;2023-03-14T14:47:53;5.87;;;1.43;;
3523;SDS011;1776;53.330;11.498;2023-03-14T14:50:28;8.00;;;1.83;;
3523;SDS011;1776;53.330;11.498;2023-03-14T14:52:56;2.40;;;1.40;;
3523;SDS011;1776;53.330;11.498;2023-03-14T14:55:39;7.43;;;2.00;;
3523;SDS011;1776;53.330;11.498;2023-03-14T14:58:16;7.47;;;1.73;;
3523;SDS011;1776;53.330;11.498;2023-03-14T15:01:19;2.40;;;1.33;;
3523;SDS011;1776;53.330;11.498;2023-03-14T15:03:41;6.43;;;1.80;;
3523;SDS011;1776;53.330;11.498;2023-03-14T15:06:10;2.80;;;1.60;;
3523;SDS011;1776;53.330;11.498;2023-03-14T15:08:38;3.40;;;1.40;;
3523;SDS011;1776;53.330;11.498;2023-03-14T15:11:04;11.57;;;1.63;;
3523;SDS011;1776;53.330;11.498;2023-03-14T15:13:29;8.33;;;1.60;;
3523;SDS011;1776;53.330;11.498;2023-03-14T15:15:55;7.20;;;1.50;;
3523;SDS011;1776;53.330;11.498;2023-03-14T15:18:21;9.07;;;2.17;;
3523;SDS011;1776;53.330;11.498;2023-03-14T15:20:49;3.53;;;2.17;;
3523;SDS011;1776;53.330;11.498;2023-03-14T15:23:15;6.00;;;1.87;;
3523;SDS011;1776;53.330;11.498;2023-03-14T15:25:42;4.80;;;2.33;;
3523;SDS011;1776;53.330;11.498;2023-03-14T15:28:30;6.93;;;3.30;;
3523;SDS011;1776;53.330;11.498;2023-03-14T15:30:56;8.87;;;2.30;;
3523;SDS011;1776;53.330;11.498;2023-03-14T15:33:23;15.60;;;2.70;;
3523;SDS011;1776;53.330;11.498;2023-03-14T15:35:49;11.03;;;2.00;;
3523;SDS011;1776;53.330;11.498;2023-03-14T15:38:17;6.17;;;2.20;;
3523;SDS011;1776;53.330;11.498;2023-03-14T15:40:48;7.10;;;2.53;;
3523;SDS011;1776;53.330;11.498;2023-03-14T15:43:14;5.07;;;2.10;;
3523;SDS011;1776;53.330;11.498;2023-03-14T15:45:40;5.33;;;1.70;;
3523;SDS011;1776;53.330;11.498;2023-03-14T15:48:06;12.93;;;2.67;;
3523;SDS011;1776;53.330;11.498;2023-03-14T15:50:37;8.20;;;1.93;;
3523;SDS011;1776;53.330;11.498;2023-03-14T15:53:02;11.90;;;2.13;;
3523;SDS011;1776;53.330;11.498;2023-03-14T15:55:27;6.43;;;1.60;;
3523;SDS011;1776;53.330;11.498;2023-03-14T15:57:52;5.57;;;1.87;;
3523;SDS011;1776;53.330;11.498;2023-03-14T16:00:19;15.23;;;2.30;;
3523;SDS011;1776;53.330;11.498;2023-03-14T16:02:46;12.87;;;2.60;;